createdAt,value
2023-04-29T00:02:38.797Z,12.20
2023-04-29T00:07:40.830Z,12.10
2023-04-29T00:12:43.130Z,12.10
2023-04-29T00:17:45.582Z,12.10
2023-04-29T00:22:47.654Z,12.10
2023-04-29T00:27:49.482Z,12.10
2023-04-29T00:32:51.293Z,12.10
2023-04-29T00:37:53.169Z,12.10
2023-04-29T00:42:55.075Z,12.00
2023-04-29T00:47:57.308Z,12.00
2023-04-29T00:53:00.199Z,12.00
2023-04-29T00:58:05.462Z,12.00
2023-04-29T01:03:09.121Z,12.00
2023-04-29T01:08:30.183Z,12.00
2023-04-29T01:13:58.946Z,12.00
2023-04-29T01:19:03.853Z,12.00
2023-04-29T01:24:05.831Z,12.00
2023-04-29T01:29:27.304Z,11.90
2023-04-29T01:34:55.082Z,11.90
2023-04-29T01:40:20.867Z,11.90
2023-04-29T01:45:23.529Z,11.90
2023-04-29T01:50:25.579Z,11.90
2023-04-29T01:55:27.870Z,11.90
2023-04-29T02:00:29.724Z,12.00
2023-04-29T02:05:34.149Z,12.00
2023-04-29T02:10:36.240Z,12.00
2023-04-29T02:15:38.128Z,12.00
2023-04-29T02:20:40.015Z,12.00
2023-04-29T02:25:41.855Z,12.00
2023-04-29T02:30:43.729Z,12.00
2023-04-29T02:35:45.545Z,12.00
2023-04-29T02:40:47.712Z,12.00
2023-04-29T02:45:50.049Z,12.00
2023-04-29T02:50:52.817Z,12.00
2023-04-29T02:55:54.639Z,12.00
2023-04-29T03:00:56.641Z,12.00
2023-04-29T03:05:59.632Z,12.00
2023-04-29T03:11:01.529Z,11.90
2023-04-29T03:16:03.391Z,11.90
2023-04-29T03:21:05.315Z,12.00
2023-04-29T03:26:07.299Z,12.00
2023-04-29T03:31:11.919Z,11.90
2023-04-29T03:36:13.919Z,12.00
2023-04-29T03:41:15.798Z,11.90
2023-04-29T03:46:17.787Z,11.90
2023-04-29T03:51:19.715Z,11.90
2023-04-29T03:56:22.979Z,11.90
2023-04-29T04:01:24.825Z,11.90
2023-04-29T04:06:26.650Z,11.90
2023-04-29T04:11:28.448Z,11.80
2023-04-29T04:16:30.336Z,11.80
2023-04-29T04:21:32.186Z,11.70
2023-04-29T04:26:34.310Z,11.70
2023-04-29T04:31:36.969Z,11.60
2023-04-29T04:36:38.844Z,11.50
2023-04-29T04:41:40.817Z,11.50
2023-04-29T04:46:43.423Z,11.50
2023-04-29T04:51:47.829Z,11.40
2023-04-29T04:56:52.155Z,11.40
2023-04-29T05:01:56.976Z,11.40
2023-04-29T05:06:58.810Z,11.30
2023-04-29T05:12:01.339Z,11.30
2023-04-29T05:17:03.417Z,11.30
2023-04-29T05:22:05.345Z,11.30
2023-04-29T05:27:07.287Z,11.20
2023-04-29T05:32:09.589Z,11.30
2023-04-29T05:37:11.447Z,11.30
2023-04-29T05:42:13.354Z,11.40
2023-04-29T05:47:15.381Z,11.40
2023-04-29T05:52:18.380Z,11.50
2023-04-29T05:57:20.332Z,11.60
2023-04-29T06:02:22.574Z,11.70
2023-04-29T06:07:24.642Z,11.70
2023-04-29T06:12:26.428Z,11.70
2023-04-29T06:17:32.203Z,11.80
2023-04-29T06:22:34.060Z,12.00
2023-04-29T06:27:35.940Z,12.20
2023-04-29T06:32:39.304Z,12.60
2023-04-29T06:37:41.127Z,13.10
2023-04-29T06:42:43.808Z,13.20
2023-04-29T06:47:46.649Z,13.20
2023-04-29T06:52:49.284Z,13.20
2023-04-29T06:57:51.414Z,13.20
2023-04-29T07:02:53.322Z,13.20
2023-04-29T07:07:55.247Z,13.40
2023-04-29T07:12:57.111Z,13.40
2023-04-29T07:17:59.280Z,13.50
2023-04-29T07:23:01.096Z,13.60
2023-04-29T07:28:02.882Z,13.60
2023-04-29T07:33:04.872Z,13.60
2023-04-29T07:38:06.795Z,13.60
2023-04-29T07:43:09.337Z,13.60
2023-04-29T07:48:11.420Z,13.60
2023-04-29T07:53:13.244Z,13.90
2023-04-29T07:58:15.083Z,14.10
2023-04-29T08:03:17.166Z,14.50
2023-04-29T08:08:19.055Z,15.20
2023-04-29T08:13:20.906Z,15.80
2023-04-29T08:18:22.856Z,16.00
2023-04-29T08:23:24.655Z,15.70
2023-04-29T08:28:26.724Z,15.80
2023-04-29T08:33:28.747Z,15.70
2023-04-29T08:38:31.102Z,15.70
2023-04-29T08:43:35.729Z,15.70
2023-04-29T08:48:41.324Z,15.50
2023-04-29T08:53:44.420Z,15.60
2023-04-29T08:58:46.848Z,16.10
2023-04-29T09:04:09.018Z,16.70
2023-04-29T09:09:11.820Z,17.20
2023-04-29T09:14:15.300Z,17.40
2023-04-29T09:19:31.972Z,17.30
2023-04-29T09:24:34.017Z,17.10
2023-04-29T09:29:38.543Z,16.70
2023-04-29T09:34:41.321Z,16.20
2023-04-29T09:39:43.139Z,15.80
2023-04-29T09:44:45.280Z,15.40
2023-04-29T09:49:48.779Z,15.20
2023-04-29T09:54:50.969Z,15.10
2023-04-29T09:59:52.848Z,15.30
2023-04-29T10:04:57.605Z,15.50
2023-04-29T10:09:59.716Z,15.60
2023-04-29T10:15:27.550Z,15.30
2023-04-29T10:20:33.269Z,15.50
2023-04-29T10:25:36.192Z,15.30
2023-04-29T10:30:39.291Z,15.30
2023-04-29T10:35:45.037Z,15.40
2023-04-29T10:40:47.810Z,15.70
2023-04-29T10:45:49.612Z,15.90
2023-04-29T10:50:51.331Z,16.00
2023-04-29T10:56:04.831Z,16.30
2023-04-29T11:01:08.097Z,16.50
2023-04-29T11:06:10.401Z,16.90
2023-04-29T11:11:14.296Z,16.90
2023-04-29T11:16:16.153Z,16.70
2023-04-29T11:21:18.022Z,16.40
2023-04-29T11:26:20.145Z,16.20
2023-04-29T11:31:22.029Z,16.10
2023-04-29T11:36:23.943Z,15.90
2023-04-29T11:41:26.664Z,15.70
2023-04-29T11:46:31.144Z,16.10
2023-04-29T11:51:43.422Z,16.60
2023-04-29T11:56:48.886Z,16.70
2023-04-29T12:01:51.428Z,16.40
2023-04-29T12:06:53.554Z,16.10
2023-04-29T12:11:55.880Z,16.00
2023-04-29T12:17:02.084Z,16.00
2023-04-29T12:22:05.566Z,16.00
2023-04-29T12:27:16.095Z,16.00
2023-04-29T12:32:22.508Z,16.60
2023-04-29T12:37:24.419Z,17.20
2023-04-29T12:42:36.492Z,17.50
2023-04-29T12:47:40.701Z,17.30
2023-04-29T12:52:50.162Z,17.10
2023-04-29T12:57:54.453Z,16.80
2023-04-29T13:02:56.611Z,16.80
2023-04-29T13:08:02.265Z,16.80
2023-04-29T13:13:04.087Z,17.20
2023-04-29T13:18:06.112Z,17.60
2023-04-29T13:23:12.265Z,17.60
2023-04-29T13:28:14.509Z,17.90
2023-04-29T13:33:16.692Z,17.80
2023-04-29T13:38:43.883Z,17.40
2023-04-29T13:43:49.780Z,17.20
2023-04-29T13:49:22.657Z,17.10
2023-04-29T13:54:57.591Z,16.90
2023-04-29T13:59:55.818Z,16.90
2023-04-29T14:05:04.251Z,16.80
2023-04-29T14:10:06.474Z,16.80
2023-04-29T14:15:10.210Z,16.80
2023-04-29T14:20:12.745Z,16.80
2023-04-29T14:25:15.084Z,17.10
2023-04-29T14:30:17.105Z,17.60
2023-04-29T14:35:19.159Z,17.90
2023-04-29T14:40:21.168Z,17.90
2023-04-29T14:45:23.046Z,17.60
2023-04-29T14:50:25.304Z,17.20
2023-04-29T14:55:28.286Z,16.90
2023-04-29T15:00:31.951Z,16.70
2023-04-29T15:05:33.753Z,16.50
2023-04-29T15:10:35.637Z,16.30
2023-04-29T15:15:37.428Z,16.00
2023-04-29T15:20:42.616Z,15.70
2023-04-29T15:25:44.926Z,15.60
2023-04-29T15:30:49.369Z,15.60
2023-04-29T15:35:51.388Z,15.70
2023-04-29T15:40:59.307Z,15.80
2023-04-29T15:46:04.263Z,15.80
2023-04-29T15:51:06.271Z,15.80
2023-04-29T15:56:08.232Z,15.90
2023-04-29T16:01:10.104Z,15.90
2023-04-29T16:06:12.096Z,15.80
2023-04-29T16:11:14.136Z,15.80
2023-04-29T16:16:15.992Z,15.80
2023-04-29T16:21:18.114Z,15.80
2023-04-29T16:26:20.214Z,15.80
2023-04-29T16:31:22.671Z,15.80
2023-04-29T16:36:24.981Z,15.80
2023-04-29T16:41:26.842Z,15.80
2023-04-29T16:46:31.744Z,15.80
2023-04-29T16:51:33.951Z,15.80
2023-04-29T16:56:36.314Z,15.80
2023-04-29T17:01:38.806Z,15.70
2023-04-29T17:06:41.024Z,15.70
2023-04-29T17:11:43.277Z,15.70
2023-04-29T17:16:45.120Z,15.60
2023-04-29T17:21:47.292Z,15.50
2023-04-29T17:26:49.174Z,15.40
2023-04-29T17:31:59.346Z,15.30
2023-04-29T17:37:01.567Z,15.10
2023-04-29T17:42:03.622Z,15.00
2023-04-29T17:47:06.103Z,14.90
2023-04-29T17:52:08.803Z,14.80
2023-04-29T17:57:10.847Z,14.60
2023-04-29T18:02:12.660Z,14.60
2023-04-29T18:07:14.473Z,14.40
2023-04-29T18:12:16.310Z,14.40
2023-04-29T18:17:18.107Z,14.30
2023-04-29T18:22:19.919Z,14.20
2023-04-29T18:27:21.889Z,14.10
2023-04-29T18:32:23.695Z,14.00
2023-04-29T18:37:25.876Z,13.90
2023-04-29T18:42:27.708Z,13.70
2023-04-29T18:47:29.517Z,13.60
2023-04-29T18:52:32.071Z,13.60
2023-04-29T18:57:34.437Z,13.50
2023-04-29T19:02:37.333Z,13.50
2023-04-29T19:07:39.139Z,13.40
2023-04-29T19:19:13.150Z,13.30
2023-04-29T19:24:15.021Z,13.40
2023-04-29T19:29:16.960Z,13.40
2023-04-29T19:34:18.835Z,13.50
2023-04-29T19:39:20.725Z,13.50
2023-04-29T19:44:22.916Z,13.50
2023-04-29T19:49:24.797Z,13.40
2023-04-29T19:54:26.905Z,13.50
2023-04-29T19:59:28.804Z,13.40
2023-04-29T20:04:30.611Z,13.40
2023-04-29T20:09:32.430Z,13.40
2023-04-29T20:14:34.309Z,13.30
2023-04-29T20:19:36.174Z,13.20
2023-04-29T20:24:37.957Z,13.10
2023-04-29T20:29:40.289Z,12.90
2023-04-29T20:34:42.291Z,12.90
2023-04-29T20:39:44.557Z,12.80
2023-04-29T20:44:46.717Z,12.70
2023-04-29T20:49:49.562Z,12.70
2023-04-29T20:54:52.613Z,12.70
2023-04-29T20:59:55.561Z,12.70
2023-04-29T21:04:57.728Z,12.70
2023-04-29T21:09:59.591Z,12.70
2023-04-29T21:15:01.564Z,12.60
2023-04-29T21:20:04.325Z,12.50
2023-04-29T21:25:06.453Z,12.50
2023-04-29T21:30:08.966Z,12.60
2023-04-29T21:35:13.800Z,12.50
2023-04-29T21:40:15.675Z,12.50
2023-04-29T21:45:17.625Z,12.50
2023-04-29T21:50:19.960Z,12.50
2023-04-29T21:55:21.758Z,12.40
2023-04-29T22:00:52.923Z,12.40
2023-04-29T22:05:54.892Z,12.40
2023-04-29T22:10:56.728Z,12.40
2023-04-29T22:15:58.791Z,12.30
2023-04-29T22:21:00.695Z,12.30
2023-04-29T22:26:02.881Z,12.30
2023-04-29T22:31:04.916Z,12.30
2023-04-29T22:36:07.111Z,12.30
2023-04-29T22:41:09.978Z,12.30
2023-04-29T22:46:11.874Z,12.30
2023-04-29T22:51:13.829Z,12.30
2023-04-29T22:56:15.653Z,12.40
2023-04-29T23:01:17.922Z,12.30
2023-04-29T23:06:21.226Z,12.30
2023-04-29T23:11:23.254Z,12.30
2023-04-29T23:16:25.402Z,12.20
2023-04-29T23:21:27.350Z,12.10
2023-04-29T23:26:29.223Z,12.10
2023-04-29T23:31:31.090Z,12.00
2023-04-29T23:36:32.935Z,11.90
2023-04-29T23:41:34.799Z,11.70
2023-04-29T23:46:36.667Z,11.60
2023-04-29T23:51:38.556Z,11.60
2023-04-29T23:56:40.372Z,11.50
